Pagina principale
METAR-TAF:

METAR-TAF

Aeroporti :

Le Luc, Francia

latitudine: 43-23N, longitudine: 006-23E, altezza: 80 m

Osservazione

Il bollettino è stato emesso 38 minuti fa, alle 15:30 UTC
Vento 8 kt da est/sud-est
Temperature 26°C
Umidità 45%
Pressione 1017 hPa
Visibilità 10 km o più
temporale nelle vicinanze

METAR: LFMC 231530Z AUTO 12008KT 9999 VCTS ////// 26/13 Q1017

Ora: 18:08 (16:08 UTC)


TAF: mancante

Osservazioni e previsioni meteorologiche di più di 4000 aeroporti (messaggi METAR e TAF).

Le stazioni disponibili sono rappresentate dai dischi gialli e rossi sulla carta.

Puntare il mouse per vedere il nome della stazione.

Clicca sopra per visualizzare le osservazioni e previsioni meteorologiche.

Per cambiare la mappa : fare clic sui pulsanti verdi con una croce nera per ingrandire, il pulsante verde con un trattino per diminuire, o sulla freccia verde per le mappe adiacenti.


METAR-TAF: